createdAt,value
2023-04-03T00:00:33.561Z,0
2023-04-03T00:01:34.339Z,0
2023-04-03T00:02:35.668Z,0
2023-04-03T00:03:35.157Z,0
2023-04-03T00:04:36.399Z,0
2023-04-03T00:05:36.178Z,0
2023-04-03T00:06:36.886Z,0
2023-04-03T00:07:36.975Z,0
2023-04-03T00:08:37.906Z,0
2023-04-03T00:09:38.426Z,0
2023-04-03T00:10:38.983Z,0
2023-04-03T00:11:39.777Z,0
2023-04-03T00:12:40.467Z,0
2023-04-03T00:13:41.175Z,0
2023-04-03T00:14:42.214Z,0
2023-04-03T00:15:42.495Z,0
2023-04-03T00:16:43.485Z,0
2023-04-03T00:17:44.781Z,0
2023-04-03T00:18:44.510Z,0
2023-04-03T00:19:45.454Z,0
2023-04-03T00:20:46.884Z,0
2023-04-03T00:21:46.402Z,0
2023-04-03T00:22:47.070Z,0
2023-04-03T00:23:48.012Z,0
2023-04-03T00:24:48.779Z,0
2023-04-03T00:25:49.332Z,0
2023-04-03T00:26:50.074Z,0
2023-04-03T00:27:50.991Z,0
2023-04-03T00:28:51.280Z,0
2023-04-03T00:29:51.574Z,0
2023-04-03T00:30:53.152Z,0
2023-04-03T00:31:54.086Z,0
2023-04-03T00:32:54.898Z,0
2023-04-03T00:33:55.608Z,0
2023-04-03T00:34:56.751Z,0
2023-04-03T00:35:57.722Z,0
2023-04-03T00:36:58.460Z,0
2023-04-03T00:37:58.429Z,0
2023-04-03T00:38:58.955Z,0
2023-04-03T00:39:59.881Z,0
2023-04-03T00:41:00.871Z,0
2023-04-03T00:42:00.632Z,0
2023-04-03T00:43:01.513Z,0
2023-04-03T00:44:02.390Z,0
2023-04-03T00:45:02.487Z,0
2023-04-03T00:46:03.313Z,0
2023-04-03T00:47:03.839Z,0
2023-04-03T00:48:04.937Z,0
2023-04-03T00:49:04.860Z,0
2023-04-03T00:50:06.050Z,0
2023-04-03T00:51:05.652Z,0
2023-04-03T00:52:05.973Z,0
2023-04-03T00:53:06.269Z,0
2023-04-03T00:54:06.796Z,0
2023-04-03T00:55:07.336Z,0
2023-04-03T00:56:07.642Z,0
2023-04-03T00:57:09.023Z,0
2023-04-03T00:58:08.571Z,0
2023-04-03T00:59:09.076Z,0
2023-04-03T01:00:09.601Z,0
2023-04-03T01:01:10.629Z,0
2023-04-03T01:02:11.913Z,0
2023-04-03T01:03:11.995Z,0
2023-04-03T01:04:13.003Z,0
2023-04-03T01:05:13.976Z,0
2023-04-03T01:06:14.692Z,0
2023-04-03T01:07:15.171Z,0
2023-04-03T01:08:15.873Z,0
2023-04-03T01:09:16.589Z,0
2023-04-03T01:10:17.773Z,0
2023-04-03T01:11:18.631Z,0
2023-04-03T01:12:19.612Z,0
2023-04-03T01:13:19.886Z,0
2023-04-03T01:14:21.574Z,0
2023-04-03T01:15:22.265Z,0
2023-04-03T01:16:23.258Z,0
2023-04-03T01:17:23.787Z,0
2023-04-03T01:18:24.531Z,0
2023-04-03T01:19:25.443Z,0
2023-04-03T01:20:26.347Z,0
2023-04-03T01:21:26.915Z,0
2023-04-03T01:22:27.816Z,0
2023-04-03T01:23:28.851Z,0
2023-04-03T01:24:29.809Z,0
2023-04-03T01:25:30.564Z,0
2023-04-03T01:26:31.053Z,0
2023-04-03T01:27:32.332Z,0
2023-04-03T01:28:32.460Z,0
2023-04-03T01:29:32.398Z,0
2023-04-03T01:30:33.412Z,0
2023-04-03T01:31:34.468Z,0
2023-04-03T01:32:35.284Z,0
2023-04-03T01:33:35.992Z,0
2023-04-03T01:34:36.507Z,0
2023-04-03T01:35:37.331Z,0
2023-04-03T01:36:38.030Z,0
2023-04-03T01:37:38.902Z,0
2023-04-03T01:38:39.810Z,0
2023-04-03T01:39:40.573Z,0
2023-04-03T01:40:41.775Z,0
2023-04-03T01:41:42.165Z,0
2023-04-03T01:42:43.110Z,0
2023-04-03T01:43:44.205Z,0
2023-04-03T01:44:44.320Z,0
2023-04-03T01:45:44.996Z,0
2023-04-03T01:46:45.529Z,0
2023-04-03T01:47:46.292Z,0
2023-04-03T01:48:46.779Z,0
2023-04-03T01:49:47.127Z,0
2023-04-03T01:50:48.277Z,0
2023-04-03T01:51:48.726Z,0
2023-04-03T01:52:49.251Z,0
2023-04-03T01:53:49.937Z,0
2023-04-03T01:54:50.667Z,0
2023-04-03T01:55:51.415Z,0
2023-04-03T01:56:52.128Z,0
2023-04-03T01:57:52.964Z,0
2023-04-03T01:58:53.550Z,0
2023-04-03T01:59:53.861Z,0
2023-04-03T02:00:54.633Z,0
2023-04-03T02:01:55.651Z,0
2023-04-03T02:02:56.483Z,0
2023-04-03T02:03:57.398Z,0
2023-04-03T02:04:58.115Z,0
2023-04-03T02:05:58.642Z,0
2023-04-03T02:06:59.333Z,0
2023-04-03T02:08:00.243Z,0
2023-04-03T02:08:59.958Z,0
2023-04-03T02:10:00.653Z,0
2023-04-03T02:11:01.571Z,0
2023-04-03T02:12:01.637Z,0
2023-04-03T02:13:02.400Z,0
2023-04-03T02:14:02.871Z,0
2023-04-03T02:15:03.538Z,0
2023-04-03T02:16:03.859Z,0
2023-04-03T02:17:04.793Z,0
2023-04-03T02:18:07.566Z,0
2023-04-03T02:19:06.333Z,0
2023-04-03T02:20:07.041Z,0
2023-04-03T02:21:08.193Z,0
2023-04-03T02:22:08.412Z,0
2023-04-03T02:23:08.900Z,0
2023-04-03T02:24:09.623Z,0
2023-04-03T02:25:10.141Z,0
2023-04-03T02:26:10.913Z,0
2023-04-03T02:27:11.632Z,0
2023-04-03T02:28:12.594Z,0
2023-04-03T02:29:13.293Z,0
2023-04-03T02:30:13.975Z,0
2023-04-03T02:31:14.848Z,0
2023-04-03T02:32:15.102Z,0
2023-04-03T02:33:16.195Z,0
2023-04-03T02:34:15.884Z,0
2023-04-03T02:35:16.177Z,0
2023-04-03T02:36:17.143Z,0
2023-04-03T02:37:17.664Z,0
2023-04-03T02:38:18.788Z,0
2023-04-03T02:39:19.093Z,0
2023-04-03T02:40:19.824Z,0
2023-04-03T02:41:20.677Z,0
2023-04-03T02:42:21.289Z,0
2023-04-03T02:43:22.420Z,0
2023-04-03T02:44:22.112Z,0
2023-04-03T02:45:23.017Z,0
2023-04-03T02:46:24.251Z,0
2023-04-03T02:47:24.784Z,0
2023-04-03T02:48:25.760Z,0
2023-04-03T02:49:25.260Z,0
2023-04-03T02:50:26.356Z,0
2023-04-03T02:51:26.541Z,0
2023-04-03T02:52:26.775Z,0
2023-04-03T02:53:27.273Z,0
2023-04-03T02:54:27.842Z,0
2023-04-03T02:55:28.557Z,0
2023-04-03T02:56:29.263Z,0
2023-04-03T02:57:30.205Z,0
2023-04-03T02:58:30.796Z,0
2023-04-03T02:59:31.280Z,0
2023-04-03T03:00:31.764Z,0
2023-04-03T03:01:32.319Z,0
2023-04-03T03:02:33.552Z,0
2023-04-03T03:03:34.076Z,0
2023-04-03T03:04:35.045Z,0
2023-04-03T03:05:35.334Z,0
2023-04-03T03:06:36.072Z,0
2023-04-03T03:07:36.741Z,0
2023-04-03T03:08:37.343Z,0
2023-04-03T03:09:37.845Z,0
2023-04-03T03:10:38.942Z,0
2023-04-03T03:11:38.625Z,0
2023-04-03T03:12:39.164Z,0
2023-04-03T03:13:40.339Z,0
2023-04-03T03:14:40.477Z,0
2023-04-03T03:15:40.198Z,0
2023-04-03T03:16:41.420Z,0
2023-04-03T03:17:42.552Z,0
2023-04-03T03:18:42.573Z,0
2023-04-03T03:19:43.268Z,0
2023-04-03T03:20:43.994Z,0
2023-04-03T03:21:44.894Z,0
2023-04-03T03:22:47.491Z,0
2023-04-03T03:23:46.032Z,0
2023-04-03T03:24:46.756Z,0
2023-04-03T03:25:48.706Z,0
2023-04-03T03:26:48.850Z,0
2023-04-03T03:27:49.334Z,0
2023-04-03T03:28:49.888Z,0
2023-04-03T03:29:50.362Z,0
2023-04-03T03:30:50.633Z,0
2023-04-03T03:31:51.425Z,0
2023-04-03T03:32:52.588Z,0
2023-04-03T03:33:52.528Z,0
2023-04-03T03:34:53.403Z,0
2023-04-03T03:35:54.680Z,0
2023-04-03T03:36:54.440Z,0
2023-04-03T03:37:54.982Z,0
2023-04-03T03:38:55.659Z,0
2023-04-03T03:39:56.269Z,0
2023-04-03T03:40:57.009Z,0
2023-04-03T03:41:58.159Z,0
2023-04-03T03:42:58.734Z,0
2023-04-03T03:43:59.485Z,0
2023-04-03T03:44:59.976Z,0
2023-04-03T03:46:00.465Z,0
2023-04-03T03:47:01.624Z,0
2023-04-03T03:48:02.527Z,0
2023-04-03T03:49:02.657Z,0
2023-04-03T03:50:03.353Z,0
2023-04-03T03:51:04.254Z,0
2023-04-03T03:52:05.060Z,0
2023-04-03T03:53:05.672Z,0
2023-04-03T03:54:06.161Z,0
2023-04-03T03:55:06.683Z,0
2023-04-03T03:56:07.627Z,0
2023-04-03T03:57:07.892Z,0
2023-04-03T03:58:07.679Z,0
2023-04-03T03:59:08.475Z,0
2023-04-03T04:00:08.808Z,0
2023-04-03T04:01:09.722Z,0
2023-04-03T04:02:10.497Z,0
2023-04-03T04:03:13.513Z,0
2023-04-03T04:04:12.186Z,0
2023-04-03T04:05:13.330Z,0
2023-04-03T04:06:12.942Z,0
2023-04-03T04:07:13.470Z,0
2023-04-03T04:08:13.766Z,0
2023-04-03T04:09:14.280Z,0
2023-04-03T04:10:14.553Z,0
2023-04-03T04:11:15.719Z,0
2023-04-03T04:12:16.291Z,0
2023-04-03T04:13:16.149Z,0
2023-04-03T04:14:16.898Z,0
2023-04-03T04:15:17.727Z,0
2023-04-03T04:16:18.077Z,0
2023-04-03T04:17:19.013Z,0
2023-04-03T04:18:19.168Z,0
2023-04-03T04:19:20.363Z,0
2023-04-03T04:20:20.244Z,0
2023-04-03T04:21:20.530Z,0
2023-04-03T04:22:21.275Z,0
2023-04-03T04:23:21.458Z,0
2023-04-03T04:24:22.471Z,0
2023-04-03T04:25:23.372Z,0
2023-04-03T04:26:24.096Z,0
2023-04-03T04:27:25.030Z,0
2023-04-03T04:28:25.509Z,0
2023-04-03T04:29:26.676Z,0
2023-04-03T04:30:26.159Z,0
2023-04-03T04:31:27.065Z,0
2023-04-03T04:32:27.034Z,0
2023-04-03T04:33:27.363Z,0
2023-04-03T04:34:28.062Z,0
2023-04-03T04:35:31.445Z,0
2023-04-03T04:36:29.252Z,0
2023-04-03T04:37:30.230Z,0
2023-04-03T04:38:30.715Z,0
2023-04-03T04:39:31.214Z,0
2023-04-03T04:40:31.911Z,0
2023-04-03T04:41:32.618Z,0
2023-04-03T04:42:34.316Z,0
2023-04-03T04:43:33.911Z,0
2023-04-03T04:44:34.469Z,0
2023-04-03T04:45:35.393Z,0
2023-04-03T04:46:36.563Z,0
2023-04-03T04:47:36.725Z,0
2023-04-03T04:48:38.196Z,0
2023-04-03T04:49:37.100Z,0
2023-04-03T04:50:38.057Z,0
2023-04-03T04:51:57.696Z,0
2023-04-03T04:54:40.711Z,0
2023-04-03T04:55:41.698Z,0
2023-04-03T04:56:42.626Z,0
2023-04-03T04:57:42.391Z,0
2023-04-03T04:58:42.702Z,0
2023-04-03T04:59:43.243Z,0
2023-04-03T05:00:44.169Z,0
2023-04-03T05:01:45.212Z,0
2023-04-03T05:02:45.378Z,0
2023-04-03T05:03:45.784Z,0
2023-04-03T05:04:47.196Z,0
2023-04-03T05:05:47.178Z,0
2023-04-03T05:06:47.670Z,0
2023-04-03T05:07:48.605Z,0
2023-04-03T05:08:49.295Z,0
2023-04-03T05:09:49.391Z,0
2023-04-03T05:10:49.883Z,0
2023-04-03T05:11:50.842Z,0
2023-04-03T05:12:51.636Z,0
2023-04-03T05:13:52.073Z,0
2023-04-03T05:14:52.839Z,0
2023-04-03T05:15:54.048Z,0
2023-04-03T05:16:56.895Z,0
2023-04-03T05:17:54.803Z,0
2023-04-03T05:18:54.305Z,0
2023-04-03T05:19:55.003Z,0
2023-04-03T05:20:55.710Z,0
2023-04-03T05:21:56.226Z,0
2023-04-03T05:22:56.868Z,0
2023-04-03T05:23:57.248Z,0
2023-04-03T05:24:57.960Z,0
2023-04-03T05:25:58.660Z,0
2023-04-03T05:26:59.180Z,0
2023-04-03T05:27:59.688Z,5.63
2023-04-03T05:29:00.182Z,5.63
2023-04-03T05:30:01.375Z,5.63
2023-04-03T05:31:01.484Z,5.63
2023-04-03T05:32:01.712Z,5.63
2023-04-03T05:33:01.981Z,5.63
2023-04-03T05:34:02.678Z,5.63
2023-04-03T05:35:05.270Z,5.63
2023-04-03T05:36:05.055Z,5.63
2023-04-03T05:37:05.765Z,5.63
2023-04-03T05:38:06.277Z,5.63
2023-04-03T05:39:06.485Z,5.63
2023-04-03T05:40:06.278Z,5.63
2023-04-03T05:41:06.983Z,5.63
2023-04-03T05:42:07.910Z,5.63
2023-04-03T05:43:08.862Z,5.63
2023-04-03T05:44:09.104Z,5.63
2023-04-03T05:45:09.861Z,5.63
2023-04-03T05:46:11.015Z,5.63
2023-04-03T05:47:11.396Z,5.63
2023-04-03T05:48:12.060Z,5.63
2023-04-03T05:49:12.596Z,5.63
2023-04-03T05:50:13.482Z,5.63
2023-04-03T05:51:14.190Z,5.63
2023-04-03T05:52:14.883Z,5.63
2023-04-03T05:53:15.712Z,5.63
2023-04-03T05:54:15.713Z,5.63
2023-04-03T05:55:16.581Z,11.25
2023-04-03T05:56:17.066Z,5.63
2023-04-03T05:57:18.156Z,5.63
2023-04-03T05:58:22.020Z,5.63
2023-04-03T05:59:18.551Z,5.63
2023-04-03T06:00:19.117Z,5.63
2023-04-03T06:01:20.054Z,5.63
2023-04-03T06:02:20.442Z,5.63
2023-04-03T06:03:22.075Z,5.63
2023-04-03T06:04:22.336Z,11.25
2023-04-03T06:05:22.763Z,11.25
2023-04-03T06:06:23.674Z,11.25
2023-04-03T06:07:24.431Z,11.25
2023-04-03T06:08:25.565Z,11.25
2023-04-03T06:09:25.511Z,11.25
2023-04-03T06:10:26.222Z,11.25
2023-04-03T06:11:26.503Z,11.25
2023-04-03T06:12:27.057Z,11.25
2023-04-03T06:13:27.974Z,11.25
2023-04-03T06:14:28.387Z,11.25
2023-04-03T06:15:29.190Z,11.25
2023-04-03T06:16:29.743Z,11.25
2023-04-03T06:17:30.928Z,11.25
2023-04-03T06:18:31.253Z,11.25
2023-04-03T06:19:31.482Z,11.25
2023-04-03T06:20:31.378Z,11.25
2023-04-03T06:21:32.276Z,11.25
2023-04-03T06:22:32.556Z,11.25
2023-04-03T06:23:33.369Z,11.25
2023-04-03T06:24:33.774Z,11.25
2023-04-03T06:25:34.691Z,11.25
2023-04-03T06:26:35.583Z,11.25
2023-04-03T06:27:36.703Z,11.25
2023-04-03T06:28:38.877Z,11.25
2023-04-03T06:29:36.557Z,11.25
2023-04-03T06:30:37.503Z,16.88
2023-04-03T06:31:37.345Z,16.88
2023-04-03T06:32:38.190Z,16.88
2023-04-03T06:33:39.299Z,16.88
2023-04-03T06:34:40.091Z,16.88
2023-04-03T06:35:40.673Z,16.88
2023-04-03T06:36:41.590Z,16.88
2023-04-03T06:37:42.070Z,16.88
2023-04-03T06:38:42.789Z,22.5
2023-04-03T06:39:43.289Z,22.5
2023-04-03T06:40:44.291Z,22.5
2023-04-03T06:41:47.951Z,22.5
2023-04-03T06:42:44.463Z,22.5
2023-04-03T06:43:46.007Z,28.13
2023-04-03T06:44:45.641Z,28.13
2023-04-03T06:45:46.546Z,28.13
2023-04-03T06:46:46.611Z,28.13
2023-04-03T06:47:47.633Z,28.13
2023-04-03T06:48:48.610Z,28.13
2023-04-03T06:49:49.252Z,28.13
2023-04-03T06:50:49.817Z,33.75
2023-04-03T06:51:50.781Z,33.75
2023-04-03T06:52:51.451Z,33.75
2023-04-03T06:53:52.666Z,33.75
2023-04-03T06:54:53.268Z,33.75
2023-04-03T06:55:54.362Z,33.75
2023-04-03T06:56:54.289Z,33.75
2023-04-03T06:57:55.602Z,33.75
2023-04-03T06:58:55.359Z,33.75
2023-04-03T06:59:56.434Z,33.75
2023-04-03T07:00:56.827Z,33.75
2023-04-03T07:01:56.830Z,33.75
2023-04-03T07:02:57.816Z,33.75
2023-04-03T07:03:58.354Z,39.38
2023-04-03T07:04:59.452Z,33.75
2023-04-03T07:05:59.197Z,33.75
2023-04-03T07:06:59.727Z,33.75
2023-04-03T07:08:00.949Z,33.75
2023-04-03T07:09:01.362Z,33.75
2023-04-03T07:10:01.704Z,33.75
2023-04-03T07:11:01.400Z,33.75
2023-04-03T07:12:02.105Z,33.75
2023-04-03T07:13:02.660Z,33.75
2023-04-03T07:14:03.816Z,33.75
2023-04-03T07:15:04.094Z,33.75
2023-04-03T07:16:04.972Z,33.75
2023-04-03T07:17:05.570Z,33.75
2023-04-03T07:18:06.558Z,33.75
2023-04-03T07:19:06.242Z,33.75
2023-04-03T07:20:06.733Z,33.75
2023-04-03T07:21:07.421Z,33.75
2023-04-03T07:22:08.348Z,33.75
2023-04-03T07:23:09.717Z,33.75
2023-04-03T07:24:11.305Z,33.75
2023-04-03T07:25:09.860Z,33.75
2023-04-03T07:26:10.563Z,33.75
2023-04-03T07:27:11.513Z,33.75
2023-04-03T07:28:12.526Z,33.75
2023-04-03T07:29:13.542Z,33.75
2023-04-03T07:30:14.239Z,33.75
2023-04-03T07:31:15.407Z,39.38
2023-04-03T07:32:15.508Z,39.38
2023-04-03T07:33:16.111Z,39.38
2023-04-03T07:34:15.865Z,39.38
2023-04-03T07:35:18.090Z,39.38
2023-04-03T07:36:17.001Z,39.38
2023-04-03T07:37:16.990Z,39.38
2023-04-03T07:38:17.485Z,39.38
2023-04-03T07:39:18.626Z,39.38
2023-04-03T07:40:19.004Z,39.38
2023-04-03T07:41:19.536Z,39.38
2023-04-03T07:42:20.238Z,39.38
2023-04-03T07:43:21.189Z,39.38
2023-04-03T07:44:21.150Z,39.38
2023-04-03T07:45:21.947Z,39.38
2023-04-03T07:46:22.828Z,39.38
2023-04-03T07:47:22.371Z,39.38
2023-04-03T07:48:23.061Z,39.38
2023-04-03T07:49:24.187Z,39.38
2023-04-03T07:50:24.081Z,45
2023-04-03T07:51:24.802Z,45
2023-04-03T07:52:25.515Z,45
2023-04-03T07:53:26.252Z,39.38
2023-04-03T07:54:27.168Z,39.38
2023-04-03T07:55:27.542Z,39.38
2023-04-03T07:56:28.350Z,39.38
2023-04-03T07:57:29.316Z,45
2023-04-03T07:58:29.535Z,45
2023-04-03T07:59:29.321Z,45
2023-04-03T08:00:29.935Z,50.63
2023-04-03T08:01:30.741Z,50.63
2023-04-03T08:02:31.694Z,50.63
2023-04-03T08:03:33.732Z,56.25
2023-04-03T08:04:34.469Z,56.25
2023-04-03T08:06:57.610Z,67.5
2023-04-03T08:08:37.575Z,73.13
2023-04-03T08:09:36.743Z,73.13
2023-04-03T08:10:36.467Z,73.13
2023-04-03T08:11:37.586Z,78.75
2023-04-03T08:12:37.283Z,84.38
2023-04-03T08:13:38.041Z,90
2023-04-03T08:14:39.037Z,106.88
2023-04-03T08:15:39.846Z,118.13
2023-04-03T08:16:40.758Z,129.38
2023-04-03T08:17:41.877Z,140.63
2023-04-03T08:18:41.874Z,163.13
2023-04-03T08:19:43.038Z,174.38
2023-04-03T08:20:42.935Z,151.88
2023-04-03T08:21:43.732Z,157.5
2023-04-03T08:22:44.246Z,157.5
2023-04-03T08:23:45.152Z,163.13
2023-04-03T08:25:01.994Z,157.5
2023-04-03T08:26:50.454Z,163.13
2023-04-03T08:27:50.993Z,191.25
2023-04-03T08:28:52.113Z,258.75
2023-04-03T08:29:52.889Z,157.5
2023-04-03T08:30:53.743Z,151.88
2023-04-03T08:31:54.754Z,146.25
2023-04-03T08:32:56.054Z,157.5
2023-04-03T08:33:56.209Z,163.13
2023-04-03T08:34:56.159Z,163.13
2023-04-03T08:35:57.093Z,163.13
2023-04-03T08:36:56.802Z,168.75
2023-04-03T08:37:57.770Z,168.75
2023-04-03T08:38:57.716Z,168.75
2023-04-03T08:39:58.784Z,168.75
2023-04-03T08:40:58.746Z,168.75
2023-04-03T08:41:59.706Z,163.13
2023-04-03T08:43:00.479Z,157.5
2023-04-03T08:44:01.542Z,157.5
2023-04-03T08:45:02.025Z,157.5
2023-04-03T08:46:02.898Z,168.75
2023-04-03T08:47:04.235Z,157.5
2023-04-03T08:48:07.381Z,151.88
2023-04-03T08:49:04.335Z,151.88
2023-04-03T08:50:04.957Z,151.88
2023-04-03T08:52:06.576Z,146.25
2023-04-03T08:53:07.307Z,146.25
2023-04-03T08:54:08.223Z,146.25
2023-04-03T08:55:08.925Z,146.25
2023-04-03T08:56:08.838Z,146.25
2023-04-03T08:57:09.491Z,140.63
2023-04-03T08:58:10.619Z,135
2023-04-03T08:59:10.854Z,135
2023-04-03T09:00:11.132Z,135
2023-04-03T09:01:11.870Z,140.63
2023-04-03T09:02:13.130Z,151.88
2023-04-03T09:03:16.240Z,157.5
2023-04-03T09:04:13.550Z,163.13
2023-04-03T09:05:13.355Z,168.75
2023-04-03T09:06:14.371Z,168.75
2023-04-03T09:07:15.097Z,180
2023-04-03T09:08:15.636Z,208.13
2023-04-03T09:09:16.331Z,185.63
2023-04-03T09:10:17.378Z,185.63
2023-04-03T09:11:18.084Z,191.25
2023-04-03T09:12:19.005Z,196.88
2023-04-03T09:13:19.722Z,241.88
2023-04-03T09:14:20.621Z,191.25
2023-04-03T09:15:31.750Z,202.5
2023-04-03T09:17:24.188Z,180
2023-04-03T09:18:23.978Z,174.38
2023-04-03T09:19:24.890Z,180
2023-04-03T09:20:26.431Z,174.38
2023-04-03T09:21:26.355Z,180
2023-04-03T09:22:27.457Z,180
2023-04-03T09:23:27.369Z,185.63
2023-04-03T09:24:28.061Z,191.25
2023-04-03T09:25:30.031Z,191.25
2023-04-03T09:26:29.636Z,196.88
2023-04-03T09:27:30.636Z,191.25
2023-04-03T09:28:35.642Z,191.25
2023-04-03T09:29:31.451Z,191.25
2023-04-03T09:30:32.290Z,191.25
2023-04-03T09:31:33.194Z,185.63
2023-04-03T09:32:34.556Z,174.38
2023-04-03T09:33:34.786Z,174.38
2023-04-03T09:34:34.893Z,180
2023-04-03T09:35:58.577Z,185.63
2023-04-03T09:37:46.919Z,185.63
2023-04-03T09:38:47.838Z,185.63
2023-04-03T09:39:48.721Z,191.25
2023-04-03T09:40:49.916Z,185.63
2023-04-03T09:41:49.884Z,185.63
2023-04-03T09:43:04.412Z,196.88
2023-04-03T09:43:51.336Z,202.5
2023-04-03T09:44:52.368Z,202.5
2023-04-03T09:45:53.591Z,208.13
2023-04-03T09:46:53.554Z,213.75
2023-04-03T09:47:54.773Z,219.38
2023-04-03T09:49:08.657Z,219.38
2023-04-03T09:49:55.462Z,225
2023-04-03T09:50:56.584Z,241.88
2023-04-03T09:51:56.530Z,247.5
2023-04-03T09:52:57.688Z,247.5
2023-04-03T09:53:58.036Z,253.13
2023-04-03T09:54:58.562Z,253.13
2023-04-03T09:55:59.585Z,253.13
2023-04-03T09:57:00.587Z,258.75
2023-04-03T09:58:04.359Z,241.88
2023-04-03T09:59:07.100Z,241.88
2023-04-03T10:00:01.705Z,225
2023-04-03T10:01:02.727Z,225
2023-04-03T10:02:03.291Z,208.13
2023-04-03T10:03:05.218Z,202.5
2023-04-03T10:04:05.284Z,191.25
2023-04-03T10:05:22.547Z,174.38
2023-04-03T10:08:21.019Z,185.63
2023-04-03T10:10:08.508Z,219.38
2023-04-03T10:11:08.916Z,225
2023-04-03T10:12:10.191Z,213.75
2023-04-03T10:13:12.332Z,225
2023-04-03T10:14:10.466Z,208.13
2023-04-03T10:15:10.893Z,191.25
2023-04-03T10:16:10.645Z,191.25
2023-04-03T10:17:11.577Z,196.88
2023-04-03T10:18:34.482Z,202.5
2023-04-03T10:19:12.439Z,202.5
2023-04-03T10:20:13.646Z,208.13
2023-04-03T10:21:27.337Z,202.5
2023-04-03T10:22:14.430Z,196.88
2023-04-03T10:23:15.138Z,191.25
2023-04-03T10:24:16.023Z,185.63
2023-04-03T10:25:17.009Z,168.75
2023-04-03T10:26:20.021Z,163.13
2023-04-03T10:27:17.565Z,180
2023-04-03T10:28:18.697Z,174.38
2023-04-03T10:29:18.871Z,163.13
2023-04-03T10:30:18.706Z,163.13
2023-04-03T10:31:20.373Z,163.13
2023-04-03T10:32:20.316Z,168.75
2023-04-03T10:33:21.197Z,174.38
2023-04-03T10:34:22.645Z,174.38
2023-04-03T10:35:22.326Z,174.38
2023-04-03T10:36:23.458Z,180
2023-04-03T10:37:24.125Z,185.63
2023-04-03T10:38:23.833Z,191.25
2023-04-03T10:39:24.971Z,196.88
2023-04-03T10:40:25.467Z,213.75
2023-04-03T10:41:28.272Z,219.38
2023-04-03T10:42:34.251Z,225
2023-04-03T10:43:27.687Z,230.63
2023-04-03T10:44:28.616Z,241.88
2023-04-03T10:45:29.284Z,241.88
2023-04-03T10:46:30.197Z,236.25
2023-04-03T10:47:30.953Z,225
2023-04-03T10:48:30.619Z,219.38
2023-04-03T10:49:31.787Z,213.75
2023-04-03T10:50:31.991Z,208.13
2023-04-03T10:51:32.176Z,202.5
2023-04-03T10:52:32.291Z,196.88
2023-04-03T10:53:32.793Z,196.88
2023-04-03T10:54:33.473Z,202.5
2023-04-03T10:55:33.974Z,202.5
2023-04-03T10:56:34.853Z,219.38
2023-04-03T10:57:35.940Z,219.38
2023-04-03T10:58:36.916Z,219.38
2023-04-03T10:59:37.815Z,225
2023-04-03T11:00:38.716Z,219.38
2023-04-03T11:01:39.049Z,219.38
2023-04-03T11:02:43.180Z,219.38
2023-04-03T11:03:40.662Z,208.13
2023-04-03T11:04:40.570Z,202.5
2023-04-03T11:05:41.772Z,191.25
2023-04-03T11:06:41.689Z,185.63
2023-04-03T11:07:42.681Z,174.38
2023-04-03T11:08:43.861Z,174.38
2023-04-03T11:09:43.584Z,174.38
2023-04-03T11:10:44.075Z,168.75
2023-04-03T11:11:44.720Z,151.88
2023-04-03T11:12:47.051Z,140.63
2023-04-03T11:13:45.617Z,129.38
2023-04-03T11:14:46.333Z,123.75
2023-04-03T11:15:47.980Z,123.75
2023-04-03T11:17:05.137Z,129.38
2023-04-03T11:18:53.629Z,129.38
2023-04-03T11:19:54.579Z,129.38
2023-04-03T11:20:54.490Z,123.75
2023-04-03T11:21:55.664Z,123.75
2023-04-03T11:22:55.795Z,118.13
2023-04-03T11:24:05.035Z,118.13
2023-04-03T11:24:56.676Z,112.5
2023-04-03T11:25:59.977Z,106.88
2023-04-03T11:26:57.852Z,106.88
2023-04-03T11:27:57.339Z,95.63
2023-04-03T11:28:58.057Z,90
2023-04-03T11:29:58.546Z,84.38
2023-04-03T11:31:01.579Z,78.75
2023-04-03T11:32:01.100Z,73.13
2023-04-03T11:33:01.399Z,67.5
2023-04-03T11:34:01.601Z,67.5
2023-04-03T11:35:01.382Z,67.5
2023-04-03T11:36:05.385Z,67.5
2023-04-03T11:37:04.304Z,67.5
2023-04-03T11:38:04.418Z,73.13
2023-04-03T11:39:06.441Z,73.13
2023-04-03T11:40:05.190Z,73.13
2023-04-03T11:41:05.518Z,73.13
2023-04-03T11:42:24.228Z,73.13
2023-04-03T11:44:06.987Z,73.13
2023-04-03T11:45:07.488Z,73.13
2023-04-03T11:46:08.744Z,67.5
2023-04-03T11:47:12.638Z,67.5
2023-04-03T11:48:25.066Z,67.5
2023-04-03T11:49:10.061Z,67.5
2023-04-03T11:50:11.527Z,67.5
2023-04-03T11:51:11.098Z,67.5
2023-04-03T11:52:11.804Z,67.5
2023-04-03T11:53:12.974Z,67.5
2023-04-03T11:54:12.790Z,67.5
2023-04-03T11:55:13.739Z,67.5
2023-04-03T11:56:14.651Z,67.5
2023-04-03T11:57:15.841Z,67.5
2023-04-03T11:58:16.535Z,61.88
2023-04-03T11:59:17.445Z,61.88
2023-04-03T12:00:18.169Z,61.88
2023-04-03T12:01:19.035Z,61.88
2023-04-03T12:02:20.264Z,61.88
2023-04-03T12:03:20.757Z,61.88
2023-04-03T12:04:21.659Z,61.88
2023-04-03T12:05:21.763Z,61.88
2023-04-03T12:06:21.252Z,61.88
2023-04-03T12:07:21.918Z,61.88
2023-04-03T12:08:22.592Z,61.88
2023-04-03T12:09:23.267Z,56.25
2023-04-03T12:10:42.742Z,56.25
2023-04-03T12:12:25.503Z,56.25
2023-04-03T12:13:26.208Z,56.25
2023-04-03T12:14:27.101Z,56.25
2023-04-03T12:15:28.199Z,56.25
2023-04-03T12:16:28.375Z,56.25
2023-04-03T12:17:28.624Z,56.25
2023-04-03T12:18:28.992Z,56.25
2023-04-03T12:19:47.321Z,56.25
2023-04-03T12:20:30.498Z,56.25
2023-04-03T12:21:29.976Z,61.88
2023-04-03T12:22:30.683Z,67.5
2023-04-03T12:23:30.792Z,61.88
2023-04-03T12:24:31.713Z,61.88
2023-04-03T12:25:32.441Z,61.88
2023-04-03T12:26:47.941Z,67.5
2023-04-03T12:27:34.542Z,67.5
2023-04-03T12:28:34.742Z,67.5
2023-04-03T12:29:35.242Z,73.13
2023-04-03T12:30:36.148Z,73.13
2023-04-03T12:31:37.316Z,73.13
2023-04-03T12:32:37.669Z,73.13
2023-04-03T12:33:37.473Z,73.13
2023-04-03T12:34:38.562Z,73.13
2023-04-03T12:35:39.865Z,78.75
2023-04-03T12:36:40.023Z,78.75
2023-04-03T12:37:40.945Z,78.75
2023-04-03T12:38:40.872Z,78.75
2023-04-03T12:39:41.763Z,78.75
2023-04-03T12:40:42.528Z,84.38
2023-04-03T12:41:43.038Z,84.38
2023-04-03T12:42:44.073Z,84.38
2023-04-03T12:43:44.968Z,90
2023-04-03T12:44:46.092Z,90
2023-04-03T12:45:46.900Z,90
2023-04-03T12:46:47.372Z,95.63
2023-04-03T12:47:47.434Z,95.63
2023-04-03T12:48:47.188Z,95.63
2023-04-03T12:49:48.216Z,101.25
2023-04-03T12:50:48.973Z,95.63
2023-04-03T12:51:48.886Z,95.63
2023-04-03T12:52:49.816Z,95.63
2023-04-03T12:53:50.967Z,95.63
2023-04-03T12:54:50.672Z,95.63
2023-04-03T12:55:51.610Z,90
2023-04-03T12:56:52.300Z,90
2023-04-03T12:57:53.148Z,90
2023-04-03T12:58:53.640Z,90
2023-04-03T12:59:54.549Z,90
2023-04-03T13:00:55.430Z,90
2023-04-03T13:01:56.723Z,95.63
2023-04-03T13:02:57.332Z,95.63
2023-04-03T13:03:57.649Z,95.63
2023-04-03T13:04:57.187Z,90
2023-04-03T13:05:59.042Z,90
2023-04-03T13:06:59.151Z,84.38
2023-04-03T13:07:59.657Z,84.38
2023-04-03T13:09:00.246Z,78.75
2023-04-03T13:10:01.150Z,73.13
2023-04-03T13:11:01.856Z,73.13
2023-04-03T13:12:02.590Z,73.13
2023-04-03T13:13:03.386Z,73.13
2023-04-03T13:14:04.508Z,73.13
2023-04-03T13:15:05.216Z,73.13
2023-04-03T13:16:06.367Z,73.13
2023-04-03T13:17:06.262Z,73.13
2023-04-03T13:18:07.991Z,73.13
2023-04-03T13:19:07.616Z,73.13
2023-04-03T13:20:08.779Z,67.5
2023-04-03T13:21:08.991Z,73.13
2023-04-03T13:22:09.106Z,73.13
2023-04-03T13:23:09.793Z,73.13
2023-04-03T13:24:26.880Z,67.5
2023-04-03T13:25:13.533Z,67.5
2023-04-03T13:26:11.046Z,67.5
2023-04-03T13:27:11.765Z,73.13
2023-04-03T13:28:27.218Z,73.13
2023-04-03T13:30:15.267Z,78.75
2023-04-03T13:31:16.106Z,84.38
2023-04-03T13:32:17.650Z,90
2023-04-03T13:33:17.434Z,84.38
2023-04-03T13:34:17.912Z,84.38
2023-04-03T13:35:31.669Z,84.38
2023-04-03T13:37:19.867Z,84.38
2023-04-03T13:38:20.802Z,90
2023-04-03T13:39:20.708Z,90
2023-04-03T13:40:21.601Z,90
2023-04-03T13:41:22.529Z,90
2023-04-03T13:42:22.408Z,95.63
2023-04-03T13:43:22.902Z,78.75
2023-04-03T13:44:29.057Z,73.13
2023-04-03T13:45:23.971Z,67.5
2023-04-03T13:46:24.925Z,67.5
2023-04-03T13:47:26.054Z,56.25
2023-04-03T13:48:38.845Z,56.25
2023-04-03T13:50:27.393Z,61.88
2023-04-03T13:51:27.164Z,67.5
2023-04-03T13:52:29.774Z,67.5
2023-04-03T13:53:28.132Z,67.5
2023-04-03T13:54:28.851Z,67.5
2023-04-03T13:55:39.093Z,73.13
2023-04-03T13:56:29.844Z,73.13
2023-04-03T13:57:31.028Z,73.13
2023-04-03T13:58:30.980Z,67.5
2023-04-03T13:59:31.608Z,67.5
2023-04-03T14:00:32.507Z,67.5
2023-04-03T14:01:33.456Z,67.5